Time;durP1;ratioP1;P1;durP2;ratioP2;P2;SDS_P1;SDS_P2;PMS_P1;PMS_P2;Temp;Humidity;BMP_temperature;BMP_pressure;BME280_temperature;BME280_humidity;BME280_pressure;Samples;Min_cycle;Max_cycle;Signal;HPM_P1;HPM_P2
2022/01/29 00:03:06;;;;;;;5.85;2.05;;;7.80;55.40;;;6.02;60.34;102318.34;8391524;28;20111;-78
2022/01/29 00:07:09;;;;;;;4.82;1.38;;;7.60;55.40;;;6.15;60.11;102348.47;8395110;28;20115;-78
2022/01/29 00:11:13;;;;;;;4.60;2.25;;;7.70;55.40;;;6.10;60.27;102342.50;8398048;28;20127;-78
2022/01/29 00:15:15;;;;;;;5.97;1.58;;;7.70;55.50;;;6.03;60.18;102337.38;8405449;28;20437;-78
2022/01/29 00:19:16;;;;;;;10.93;2.08;;;7.70;55.60;;;6.06;60.33;102335.63;8378575;28;20136;-78
2022/01/29 00:23:18;;;;;;;4.32;1.80;;;7.60;55.60;;;6.03;60.33;102329.59;8394811;28;20486;-78
2022/01/29 00:27:22;;;;;;;5.88;1.92;;;7.60;55.60;;;5.97;60.65;102320.16;8394432;28;20233;-78
2022/01/29 00:31:23;;;;;;;5.63;1.58;;;7.60;55.60;;;6.00;60.52;102325.31;8395766;28;20120;-78
2022/01/29 00:35:24;;;;;;;4.75;1.75;;;7.60;55.60;;;5.91;60.54;102321.06;8390505;28;20032;-78
2022/01/29 00:39:26;;;;;;;4.05;1.27;;;7.70;56.00;;;5.94;60.16;102322.75;8397166;28;20115;-78
2022/01/29 00:43:28;;;;;;;6.47;2.20;;;7.50;55.60;;;5.91;60.43;102321.06;8396630;28;20580;-78
2022/01/29 00:47:30;;;;;;;4.57;1.50;;;7.40;55.60;;;5.72;60.32;102284.06;8397389;28;20115;-78
2022/01/29 00:51:31;;;;;;;7.45;1.65;;;7.50;55.70;;;5.65;60.65;102287.59;8396655;28;20128;-78
2022/01/29 00:55:33;;;;;;;4.50;1.65;;;7.40;55.70;;;5.85;60.71;102309.88;8396926;28;20028;-78
2022/01/29 00:59:34;;;;;;;6.80;1.88;;;7.40;55.70;;;5.85;60.58;102309.88;8394612;28;20131;-78
2022/01/29 01:03:36;;;;;;;3.85;1.40;;;7.30;56.00;;;5.84;60.74;102300.38;8378963;28;20100;-78
2022/01/29 01:07:38;;;;;;;4.50;2.42;;;7.40;55.80;;;5.83;60.59;102298.66;8397205;28;20123;-78
2022/01/29 01:11:40;;;;;;;5.65;1.50;;;7.40;55.80;;;5.66;60.44;102262.53;8390481;28;20039;-78
2022/01/29 01:15:41;;;;;;;4.68;1.48;;;7.40;55.90;;;5.72;60.87;102263.31;8391381;28;20496;-78
2022/01/29 01:19:43;;;;;;;6.97;1.50;;;7.70;56.00;;;5.72;60.88;102259.88;8393061;28;20573;-78
2022/01/29 01:23:44;;;;;;;7.50;1.63;;;7.40;55.90;;;5.84;60.76;102261.50;8394292;28;20119;-78
2022/01/29 01:27:46;;;;;;;4.55;1.63;;;7.10;55.80;;;5.20;60.52;102144.69;8403085;28;20111;-78
2022/01/29 01:31:47;;;;;;;5.10;1.77;;;7.20;55.80;;;5.84;60.57;102230.41;8394958;28;20131;-78
2022/01/29 01:35:53;;;;;;;4.82;1.55;;;7.70;56.00;;;5.84;60.94;102209.66;8395456;28;20120;-78
2022/01/29 01:39:55;;;;;;;5.00;1.50;;;7.10;55.80;;;5.83;60.13;102197.56;8394978;28;20116;-78
2022/01/29 01:44:01;;;;;;;6.38;1.70;;;7.30;55.90;;;5.81;60.54;102181.19;8395110;28;20127;-79
2022/01/29 01:48:05;;;;;;;5.90;1.50;;;7.30;55.90;;;5.81;61.08;102182.03;8386416;28;20564;-78
2022/01/29 01:52:09;;;;;;;9.27;2.30;;;7.40;55.90;;;5.82;60.40;102180.28;8393998;28;20469;-78
2022/01/29 01:56:11;;;;;;;7.15;1.52;;;7.40;55.90;;;5.58;60.27;102127.88;8402197;28;20120;-78
2022/01/29 02:00:13;;;;;;;4.10;1.42;;;7.40;56.00;;;5.82;60.44;102159.56;8383751;28;20147;-78
2022/01/29 02:04:15;;;;;;;6.57;2.15;;;7.40;55.90;;;5.80;60.85;102141.41;8386867;28;20172;-78
2022/01/29 02:08:16;;;;;;;5.13;1.83;;;7.40;56.00;;;5.81;60.39;102137.97;8389051;28;20548;-78
2022/01/29 02:12:18;;;;;;;5.07;1.55;;;7.40;55.90;;;5.81;61.15;102131.94;8389119;28;20052;-78
2022/01/29 02:16:19;;;;;;;7.28;1.70;;;7.50;55.90;;;5.74;60.86;102110.41;8401551;28;20466;-78
2022/01/29 02:20:27;;;;;;;6.70;1.70;;;7.20;55.90;;;5.80;60.55;102112.91;8393712;28;20120;-78
2022/01/29 02:24:29;;;;;;;4.30;1.70;;;7.40;55.90;;;5.74;61.19;102090.53;8383220;28;20123;-78
2022/01/29 02:28:31;;;;;;;6.60;1.95;;;7.40;56.30;;;5.81;60.44;102093.06;8392519;28;20128;-78
2022/01/29 02:32:42;;;;;;;4.32;1.33;;;7.40;55.90;;;5.75;61.27;102091.38;8394391;28;20140;-78
2022/01/29 02:36:44;;;;;;;7.95;2.05;;;7.30;55.90;;;5.72;60.73;102083.63;8393634;28;20043;-78
2022/01/29 02:40:49;;;;;;;7.60;1.88;;;7.40;56.00;;;5.82;60.50;102086.97;8394069;28;20483;-78
2022/01/29 02:44:50;;;;;;;7.90;2.10;;;7.50;56.00;;;5.85;60.66;102086.94;8393271;28;20080;-78
2022/01/29 02:48:53;;;;;;;6.63;2.08;;;7.50;56.00;;;5.87;60.44;102085.19;8391663;28;20115;-77
2022/01/29 02:52:54;;;;;;;6.55;1.70;;;7.50;55.90;;;5.88;60.93;102068.75;8394063;28;20426;-78
2022/01/29 02:56:56;;;;;;;7.22;1.70;;;7.50;56.00;;;5.89;60.38;102070.47;8392058;28;20135;-78
2022/01/29 03:00:57;;;;;;;9.70;1.95;;;7.50;55.90;;;5.88;60.70;102054.03;8392071;28;20553;-78
2022/01/29 03:05:00;;;;;;;5.75;1.98;;;7.40;55.90;;;5.88;60.56;102045.41;8392908;28;20112;-78
2022/01/29 03:09:05;;;;;;;6.82;1.70;;;7.50;56.00;;;5.84;60.55;102029.06;8393752;28;20464;-78
2022/01/29 03:13:07;;;;;;;3.05;1.50;;;7.50;56.00;;;5.87;60.62;102010.88;8398548;28;20111;-78
2022/01/29 03:17:08;;;;;;;7.40;1.98;;;7.50;56.10;;;5.86;61.11;102016.06;8393701;28;20423;-78
2022/01/29 03:21:10;;;;;;;3.88;1.52;;;7.60;56.20;;;5.79;61.30;102004.09;8392807;28;20234;-78
2022/01/29 03:25:12;;;;;;;5.20;1.70;;;7.50;56.30;;;5.83;61.29;102005.75;8393931;28;20567;-78
2022/01/29 03:29:13;;;;;;;6.13;1.80;;;7.40;56.30;;;5.80;60.55;101998.00;8392845;28;20120;-78
2022/01/29 03:33:15;;;;;;;10.55;1.67;;;7.50;56.50;;;5.80;60.97;101996.28;8393593;28;20115;-78
2022/01/29 03:37:17;;;;;;;3.55;1.63;;;7.40;56.50;;;5.79;60.55;101978.16;8393573;28;20115;-78
2022/01/29 03:41:18;;;;;;;4.18;1.90;;;7.40;56.60;;;5.70;60.90;101958.44;8394709;28;20112;-78
2022/01/29 03:45:21;;;;;;;6.28;1.65;;;7.30;56.60;;;5.74;60.96;101955.75;8399191;28;20131;-78
2022/01/29 03:49:23;;;;;;;6.32;1.92;;;7.40;56.70;;;5.74;61.15;101932.44;8398100;28;20048;-78
2022/01/29 03:53:24;;;;;;;4.53;2.05;;;7.20;56.80;;;5.71;61.22;101936.81;8399247;28;20115;-78
2022/01/29 03:57:26;;;;;;;7.75;3.20;;;7.30;56.80;;;5.69;61.23;101931.63;8398389;28;20054;-78
2022/01/29 04:01:28;;;;;;;5.80;2.00;;;7.30;56.90;;;5.67;60.75;101925.66;8397325;28;20119;-78
2022/01/29 04:05:30;;;;;;;8.35;2.78;;;7.30;57.00;;;5.66;60.98;101903.19;8398375;28;20144;-78
2022/01/29 04:09:32;;;;;;;7.80;2.60;;;7.10;57.10;;;5.65;60.93;101892.88;8396754;28;20123;-78
2022/01/29 04:13:34;;;;;;;2.97;1.60;;;7.10;57.00;;;5.51;61.01;101864.59;8397581;28;20115;-78
2022/01/29 04:17:35;;;;;;;5.10;1.98;;;7.30;57.20;;;5.61;61.59;101892.03;8390684;28;20044;-78
2022/01/29 04:21:38;;;;;;;14.20;2.60;;;7.30;57.30;;;5.62;61.48;101872.19;8413244;28;20471;-78
2022/01/29 04:25:40;;;;;;;7.80;2.38;;;7.20;57.20;;;5.58;61.31;101860.16;8397947;28;20548;-78
2022/01/29 04:29:53;;;;;;;5.28;2.47;;;7.20;57.30;;;5.62;61.10;101856.63;8396776;28;20044;-78
2022/01/29 04:33:55;;;;;;;3.83;2.10;;;7.20;57.40;;;5.61;61.31;101854.91;8397942;28;20107;-78
2022/01/29 04:37:57;;;;;;;4.85;2.45;;;7.20;57.40;;;5.49;61.38;101835.25;8396853;28;20044;-78
2022/01/29 04:41:58;;;;;;;4.70;2.08;;;7.30;57.50;;;5.62;61.65;101847.13;8396999;28;20116;-78
2022/01/29 04:46:00;;;;;;;5.05;1.88;;;7.20;57.60;;;5.51;61.63;101815.38;8388822;28;20127;-78
2022/01/29 04:50:04;;;;;;;5.53;1.92;;;7.20;57.60;;;5.62;61.19;101828.13;8395772;28;20132;-78
2022/01/29 04:54:05;;;;;;;9.63;2.65;;;7.20;57.60;;;5.60;61.66;101811.75;8396731;28;20132;-78
2022/01/29 04:58:07;;;;;;;5.75;2.30;;;7.20;57.60;;;5.49;61.18;101788.63;8395890;28;20115;-78
2022/01/29 05:02:09;;;;;;;4.93;2.40;;;7.10;57.80;;;5.62;61.79;101799.63;8387746;28;20112;-78
2022/01/29 05:06:12;;;;;;;6.05;2.65;;;7.20;57.80;;;5.58;61.30;101780.69;8391387;28;20119;-78
2022/01/29 05:10:14;;;;;;;6.45;2.80;;;7.20;57.90;;;5.62;61.55;101774.56;8396067;28;20553;-78
2022/01/29 05:14:46;;;;;;;7.57;2.63;;;7.20;57.80;;;5.61;61.61;101772.84;8395297;28;20115;-78
2022/01/29 05:27:18;;;;;;;6.10;2.72;;;7.20;58.00;;;5.61;61.58;101730.53;8395782;28;20111;-78
2022/01/29 05:31:20;;;;;;;5.43;2.45;;;7.10;57.90;;;5.61;61.69;101712.41;8394448;28;20039;-78
2022/01/29 05:35:21;;;;;;;5.80;2.72;;;7.20;58.00;;;5.66;61.62;101708.00;8395173;28;20040;-78
2022/01/29 05:39:27;;;;;;;4.97;2.88;;;7.10;58.00;;;5.60;61.94;101692.56;8393684;28;20123;-78
2022/01/29 05:43:28;;;;;;;7.97;3.50;;;7.30;58.10;;;5.67;62.27;101699.31;8369506;28;20624;-78
2022/01/29 05:47:30;;;;;;;5.70;2.70;;;7.30;58.20;;;5.67;62.07;101700.22;8394598;28;20111;-78
2022/01/29 05:51:32;;;;;;;5.25;2.85;;;7.30;58.20;;;5.64;61.91;101695.06;8394956;28;20131;-78
2022/01/29 05:55:33;;;;;;;5.10;2.58;;;7.30;58.30;;;5.69;61.78;101680.28;8393769;28;20119;-78
2022/01/29 05:59:36;;;;;;;6.68;3.38;;;7.30;58.30;;;5.69;62.05;101671.66;8387282;28;20119;-79
2022/01/29 06:03:37;;;;;;;5.80;3.17;;;7.30;58.30;;;5.70;61.96;101653.50;8392856;28;20107;-78
2022/01/29 06:07:39;;;;;;;6.38;3.03;;;7.60;58.50;;;5.72;62.30;101656.03;8393214;28;20190;-79
2022/01/29 06:11:40;;;;;;;7.20;3.03;;;7.30;58.30;;;5.72;62.10;101635.31;8392745;28;20124;-79
2022/01/29 06:15:46;;;;;;;6.72;3.15;;;7.20;58.30;;;5.67;62.25;101625.06;8388251;28;20043;-80
2022/01/29 06:19:49;;;;;;;6.68;3.50;;;7.30;58.40;;;5.73;62.09;101635.28;8392175;28;20107;-78
2022/01/29 06:23:50;;;;;;;3.05;2.55;;;7.40;58.40;;;5.75;62.29;101617.97;8393049;28;20127;-79
2022/01/29 06:27:52;;;;;;;6.15;3.20;;;7.30;58.40;;;5.70;62.21;101600.81;8385424;28;20036;-80
2022/01/29 06:31:53;;;;;;;8.35;3.10;;;7.40;58.50;;;5.42;62.19;101543.53;8386613;28;20128;-80
2022/01/29 06:35:55;;;;;;;5.45;2.97;;;7.30;58.60;;;5.75;62.58;101598.97;8389219;28;20043;-79
2022/01/29 06:39:57;;;;;;;7.45;3.95;;;7.40;58.60;;;5.54;62.13;101556.25;8384481;28;20120;-80
2022/01/29 06:43:58;;;;;;;3.75;3.10;;;7.30;59.10;;;5.81;62.81;101585.06;8387663;28;20115;-80
2022/01/29 06:48:00;;;;;;;5.03;3.08;;;7.20;58.60;;;5.83;62.84;101591.88;8380373;28;20024;-80
2022/01/29 06:52:02;;;;;;;7.70;3.17;;;7.40;58.90;;;5.77;62.65;101566.09;8383731;28;20037;-82
2022/01/29 06:56:05;;;;;;;8.13;3.97;;;7.40;58.70;;;5.85;62.15;101573.72;8371076;28;20039;-79
2022/01/29 07:00:07;;;;;;;5.18;3.13;;;7.50;58.90;;;5.74;62.24;101541.09;8387195;28;20495;-86
2022/01/29 07:04:09;;;;;;;5.85;3.97;;;7.40;59.00;;;5.87;62.51;101552.06;8376575;28;20115;-78
2022/01/29 07:08:11;;;;;;;7.65;3.30;;;7.40;59.20;;;5.89;62.82;101542.53;8389291;28;20050;-79
2022/01/29 07:12:12;;;;;;;7.60;3.63;;;7.50;59.10;;;5.89;62.15;101541.66;8404591;28;20036;-79
2022/01/29 07:16:14;;;;;;;4.28;3.45;;;7.50;59.20;;;5.73;62.74;101502.28;8355910;28;20024;-78
2022/01/29 07:20:15;;;;;;;6.00;3.60;;;7.50;59.30;;;5.81;62.94;101526.28;8382058;28;20045;-78
2022/01/29 07:24:17;;;;;;;5.20;3.78;;;7.50;59.30;;;5.95;62.98;101537.22;8371871;28;20037;-78
2022/01/29 07:28:19;;;;;;;4.18;3.58;;;7.50;59.10;;;5.94;62.99;101530.34;8397247;28;20128;-79
2022/01/29 07:32:20;;;;;;;5.28;3.67;;;7.40;59.20;;;5.97;62.94;101508.69;8394349;28;20458;-79
2022/01/29 07:36:22;;;;;;;4.57;3.60;;;7.60;59.30;;;6.01;62.64;101504.25;8385216;28;20033;-79
2022/01/29 07:40:24;;;;;;;4.95;3.17;;;7.60;59.20;;;6.03;62.82;101492.97;8388716;28;20128;-79
2022/01/29 07:44:26;;;;;;;4.22;3.40;;;7.60;59.20;;;5.76;62.51;101434.84;8384627;28;20099;-79
2022/01/29 07:48:27;;;;;;;4.57;3.78;;;7.50;59.20;;;6.08;62.49;101464.34;8372306;28;20120;-79
2022/01/29 07:52:30;;;;;;;5.00;3.75;;;7.70;59.30;;;6.09;62.48;101459.09;8394779;28;20126;-79
2022/01/29 07:56:33;;;;;;;4.05;3.63;;;7.70;59.30;;;6.07;62.89;101445.31;8398676;28;20029;-79
2022/01/29 08:00:34;;;;;;;7.32;4.55;;;7.70;59.40;;;6.12;62.61;101451.25;8379932;28;20512;-79
2022/01/29 08:04:36;;;;;;;5.93;4.28;;;7.70;59.60;;;6.01;62.65;101426.50;8397471;28;20040;-79
2022/01/29 08:08:38;;;;;;;6.25;4.90;;;7.70;59.50;;;6.05;62.83;101395.28;8380453;28;20048;-79
2022/01/29 08:12:40;;;;;;;8.73;5.60;;;7.80;59.70;;;6.17;62.77;101426.06;8392406;28;20036;-79
2022/01/29 08:16:41;;;;;;;6.25;4.20;;;7.70;59.80;;;6.04;63.11;101393.56;8395959;28;20119;-79
2022/01/29 08:20:43;;;;;;;5.35;4.20;;;7.80;59.90;;;6.11;63.42;101397.69;8394029;28;20047;-79
2022/01/29 08:24:44;;;;;;;6.43;4.55;;;7.70;59.70;;;6.06;63.52;101372.78;8397343;28;20112;-79
2022/01/29 08:28:46;;;;;;;8.00;4.32;;;7.80;59.70;;;6.16;63.48;101377.69;8395015;28;20115;-79
2022/01/29 08:32:47;;;;;;;5.20;3.65;;;7.70;59.90;;;6.16;63.06;101377.69;8396568;28;20119;-79
2022/01/29 08:36:49;;;;;;;4.10;3.50;;;7.80;59.70;;;6.30;63.12;101399.81;8396159;28;20039;-80
2022/01/29 08:40:52;;;;;;;6.35;4.90;;;7.90;59.80;;;6.23;63.64;101360.22;8405032;28;20040;-79
2022/01/29 08:44:53;;;;;;;5.43;3.58;;;7.90;59.90;;;6.37;63.28;101368.50;8399789;28;20127;-79
2022/01/29 08:49:14;;;;;;;5.38;4.53;;;7.90;59.80;;;6.26;63.21;101343.72;8391679;28;20131;-81
2022/01/29 08:53:35;;;;;;;5.93;4.00;;;8.00;60.20;;;6.16;63.17;101306.84;8381984;28;20128;-81
2022/01/29 08:57:58;;;;;;;4.63;3.70;;;7.90;59.90;;;6.35;63.57;101325.31;8399902;28;20108;-82
2022/01/29 09:02:19;;;;;;;4.30;3.17;;;8.00;59.90;;;6.42;63.31;101329.44;8395236;28;20042;-81
2022/01/29 09:06:41;;;;;;;4.32;3.72;;;8.00;60.00;;;6.23;63.47;101279.81;8413941;28;20579;-81
2022/01/29 09:11:03;;;;;;;4.97;3.78;;;8.10;60.20;;;6.33;63.10;101291.63;8415492;28;20126;-81
2022/01/29 09:15:25;;;;;;;4.20;3.45;;;8.10;60.20;;;6.43;63.49;101282.72;8418579;28;20119;-82
2022/01/29 09:19:47;;;;;;;4.10;3.63;;;8.10;60.40;;;6.54;63.67;101294.53;8414390;28;20027;-82
2022/01/29 09:24:09;;;;;;;4.20;3.05;;;8.20;60.40;;;6.41;63.76;101253.34;8420118;28;20122;-80
2022/01/29 09:28:30;;;;;;;4.15;3.45;;;8.20;60.50;;;6.55;63.51;101270.25;8395117;28;20099;-81
2022/01/29 09:32:52;;;;;;;4.20;3.80;;;8.20;61.50;;;6.57;63.63;101261.53;8408872;28;20119;-81
2022/01/29 09:37:14;;;;;;;4.35;3.38;;;8.30;61.30;;;6.56;63.79;101249.47;8402357;28;20035;-81
2022/01/29 09:41:41;;;;;;;4.38;3.13;;;8.30;61.10;;;6.61;63.78;101247.56;8410956;28;20119;-81
2022/01/29 09:46:03;;;;;;;4.50;3.55;;;8.10;60.60;;;6.70;63.58;101251.66;8406140;28;20111;-79
2022/01/29 09:50:25;;;;;;;3.42;3.13;;;8.40;60.70;;;6.76;63.55;101233.28;8398244;28;20107;-80
2022/01/29 09:54:48;;;;;;;4.38;3.55;;;8.40;60.80;;;6.72;63.88;101197.09;8412296;28;20111;-81
2022/01/29 09:59:11;;;;;;;3.95;3.40;;;8.40;60.90;;;6.89;63.64;101202.59;8427293;28;20031;-80
2022/01/29 10:03:33;;;;;;;3.90;3.13;;;8.40;60.70;;;6.87;63.28;101183.63;8404844;28;20122;-80
2022/01/29 10:08:00;;;;;;;4.25;3.40;;;8.50;60.70;;;6.94;63.69;101174.75;8411886;28;20127;-80
2022/01/29 10:12:26;;;;;;;4.72;3.03;;;8.50;61.10;;;6.99;63.73;101167.63;8407815;28;20038;-80
2022/01/29 10:16:48;;;;;;;;;;;8.60;61.20;;;6.99;63.67;101180.59;8398093;28;20038;-80
2022/01/29 10:21:27;;;;;;;4.13;3.22;;;8.60;62.20;;;6.94;63.91;101166.09;8435311;28;20010;-80
2022/01/29 10:25:50;;;;;;;4.07;3.63;;;8.60;61.40;;;6.91;63.60;101138.47;8412135;28;20122;-80
2022/01/29 10:30:12;;;;;;;5.35;3.83;;;8.70;61.00;;;7.03;64.17;101147.63;8414012;28;20091;-81
2022/01/29 10:34:35;;;;;;;5.13;3.92;;;8.70;61.30;;;7.14;63.79;101150.69;8406239;28;20115;-84
2022/01/29 10:38:57;;;;;;;5.38;3.83;;;8.80;61.40;;;7.21;63.75;101153.91;8410731;28;20054;-84
2022/01/29 10:43:19;;;;;;;6.18;3.80;;;8.70;61.40;;;7.22;63.71;101134.84;8427932;28;20551;-82
2022/01/29 10:47:57;;;;;;;5.68;4.18;;;8.70;61.60;;;7.19;63.97;101122.81;8428390;28;20119;-81
2022/01/29 10:52:28;;;;;;;5.00;3.70;;;8.90;62.50;;;7.32;64.10;101133.66;8384298;28;20042;-81
2022/01/29 10:57:05;;;;;;;6.70;3.47;;;8.90;62.00;;;7.35;64.17;101127.50;8379809;28;20040;-83
2022/01/29 11:01:27;;;;;;;6.28;3.97;;;9.00;62.10;;;7.32;64.23;101100.72;8407558;28;20595;-82
2022/01/29 11:05:49;;;;;;;4.30;3.42;;;9.00;62.10;;;7.46;63.96;101117.56;8389184;28;20040;-85
2022/01/29 11:10:11;;;;;;;4.38;3.97;;;9.10;62.10;;;7.52;64.26;101104.34;8420501;28;20053;-85
2022/01/29 11:14:35;;;;;;;4.05;3.53;;;9.10;62.00;;;7.56;64.34;101102.47;8391218;28;20043;-85
2022/01/29 11:18:58;;;;;;;4.53;3.55;;;9.20;62.00;;;7.64;64.23;101088.31;8389556;28;20411;-84
2022/01/29 11:23:22;;;;;;;4.43;3.50;;;9.20;62.00;;;7.62;64.07;101074.50;8411585;28;20664;-81
2022/01/29 11:27:45;;;;;;;3.80;3.40;;;9.30;62.10;;;7.63;64.38;101065.81;8411662;28;20044;-84
2022/01/29 11:32:21;;;;;;;4.00;3.22;;;9.30;62.20;;;7.81;64.30;101069.47;8409356;28;20512;-81
2022/01/29 11:36:49;;;;;;;3.60;3.30;;;9.40;62.50;;;7.86;64.25;101056.31;8436265;28;20046;-83
2022/01/29 11:41:12;;;;;;;4.43;2.78;;;9.30;62.20;;;7.80;64.26;101025.31;8411350;28;20038;-83
2022/01/29 11:45:38;;;;;;;3.97;3.53;;;9.50;62.10;;;7.88;64.48;101010.25;8396953;28;20527;-83
2022/01/29 11:50:18;;;;;;;3.45;3.15;;;9.50;62.20;;;8.00;64.49;101006.34;8408863;28;20036;-82
2022/01/29 11:55:06;;;;;;;3.45;3.15;;;9.50;62.50;;;7.90;64.78;100967.69;8416803;28;20040;-83
2022/01/29 11:59:28;;;;;;;3.92;3.15;;;9.60;62.70;;;8.08;64.36;100967.88;8390731;28;20038;-83
2022/01/29 12:03:52;;;;;;;3.75;2.97;;;9.60;62.50;;;7.99;64.50;100937.88;8403377;28;20063;-82
2022/01/29 12:08:17;;;;;;;3.15;2.83;;;9.70;62.90;;;8.17;64.66;100950.13;8404533;28;20048;-82
2022/01/29 12:12:43;;;;;;;3.43;2.77;;;9.80;63.00;;;8.22;64.88;100931.72;8399147;28;20121;-82
2022/01/29 12:17:07;;;;;;;2.65;2.45;;;9.90;63.00;;;8.40;64.51;100927.53;8393684;28;20032;-82
2022/01/29 12:21:28;;;;;;;3.42;3.03;;;9.90;63.00;;;8.46;64.58;100905.63;8393411;28;20040;-83
2022/01/29 12:25:57;;;;;;;2.67;2.47;;;10.00;63.30;;;8.50;64.69;100900.19;8390213;28;20036;-81
2022/01/29 12:30:28;;;;;;;3.28;2.97;;;10.10;63.50;;;8.63;64.58;100903.09;8396619;28;20038;-82
2022/01/29 12:34:57;;;;;;;2.63;2.42;;;10.10;63.60;;;8.64;64.88;100894.38;8400910;28;20048;-83
2022/01/29 12:39:23;;;;;;;2.65;2.45;;;10.20;63.40;;;8.73;64.51;100888.78;8380473;28;20039;-83
2022/01/29 12:43:53;;;;;;;3.92;2.85;;;10.20;63.00;;;8.84;64.65;100896.94;8381270;28;20051;-83
2022/01/29 12:48:16;;;;;;;3.38;2.83;;;10.30;63.60;;;8.81;64.67;100860.63;8375223;28;20895;-83
2022/01/29 12:52:38;;;;;;;3.28;2.97;;;10.40;63.50;;;8.91;64.88;100862.78;8384735;28;20058;-83
2022/01/29 12:57:00;;;;;;;3.42;3.13;;;10.50;63.70;;;9.02;64.84;100844.94;8427705;28;20040;-83
2022/01/29 13:01:24;;;;;;;4.32;2.50;;;10.50;63.30;;;9.08;64.66;100831.63;8404489;28;20227;-81
2022/01/29 13:05:46;;;;;;;2.83;2.63;;;10.60;63.30;;;9.14;64.24;100818.28;8405953;28;20040;-82
2022/01/29 13:10:09;;;;;;;2.97;2.28;;;10.60;63.20;;;9.06;65.03;100786.56;8399909;28;20048;-84
2022/01/29 13:14:33;;;;;;;3.58;3.20;;;10.70;63.10;;;9.17;64.61;100792.09;8395727;28;20049;-80
2022/01/29 13:18:54;;;;;;;2.47;2.28;;;10.80;63.50;;;9.29;65.15;100827.97;8407653;28;20040;-82
2022/01/29 13:23:16;;;;;;;3.03;2.60;;;10.80;63.10;;;9.27;65.14;100792.50;8396778;28;20040;-82
2022/01/29 13:27:42;;;;;;;2.17;1.98;;;10.90;63.10;;;9.24;64.82;100783.06;8386729;28;20036;-82
2022/01/29 13:32:07;;;;;;;3.47;2.92;;;10.90;63.00;;;9.27;64.94;100777.69;8387911;28;20040;-82
2022/01/29 13:36:35;;;;;;;2.80;2.33;;;11.00;63.00;;;9.48;65.38;100786.22;8389070;28;20047;-82
2022/01/29 13:40:59;;;;;;;2.60;2.00;;;11.00;63.60;;;9.54;64.86;100795.50;8403038;28;20058;-82
2022/01/29 13:45:22;;;;;;;3.08;2.78;;;11.10;62.70;;;9.50;65.02;100807.84;8406282;28;20044;-81
2022/01/29 13:49:45;;;;;;;2.97;2.67;;;11.10;62.70;;;9.63;64.69;100820.25;8386195;28;20515;-82
2022/01/29 13:54:21;;;;;;;2.67;2.38;;;11.10;62.60;;;9.58;65.17;100786.59;8393046;28;20126;-82
2022/01/29 13:59:02;;;;;;;2.58;2.35;;;11.20;62.60;;;9.65;64.55;100774.94;8388174;28;20050;-82
2022/01/29 14:03:47;;;;;;;2.42;2.22;;;11.20;62.90;;;9.75;65.06;100773.56;8366168;28;20047;-83
2022/01/29 14:08:17;;;;;;;2.30;2.10;;;11.30;62.50;;;9.54;64.63;100732.94;8388988;28;20485;-82
2022/01/29 14:12:51;;;;;;;2.15;1.65;;;11.40;62.60;;;9.82;64.62;100760.19;8417916;28;20054;-83
2022/01/29 14:17:24;;;;;;;1.25;1.20;;;11.30;62.30;;;9.90;65.03;100737.19;8386394;28;20406;-84
2022/01/29 14:21:50;;;;;;;1.90;1.70;;;11.50;62.40;;;9.82;64.74;100708.03;8363213;28;20537;-84
2022/01/29 14:26:12;;;;;;;1.92;1.83;;;11.80;62.20;;;9.85;65.34;100685.25;8362628;28;20034;-84
2022/01/29 14:30:36;;;;;;;1.67;1.58;;;11.60;61.90;;;10.05;64.93;100683.38;8387476;28;20066;-83
2022/01/29 14:34:59;;;;;;;1.42;1.33;;;11.60;61.80;;;10.12;64.73;100679.47;8403418;28;20057;-83
2022/01/29 14:39:27;;;;;;;1.42;1.33;;;11.60;61.80;;;10.08;65.04;100665.78;8404027;28;20826;-83
2022/01/29 14:43:51;;;;;;;1.30;1.20;;;11.70;62.00;;;10.24;65.11;100675.38;8389718;28;20046;-84
2022/01/29 14:48:13;;;;;;;1.70;1.60;;;11.70;61.80;;;10.30;64.88;100668.06;8385577;28;20040;-83
2022/01/29 14:52:35;;;;;;;1.42;1.33;;;11.80;61.80;;;10.34;64.88;100645.25;8412937;28;20046;-82
2022/01/29 14:56:57;;;;;;;1.40;1.30;;;11.80;61.80;;;10.38;64.84;100646.78;8417267;28;20542;-82
2022/01/29 15:01:20;;;;;;;1.55;1.45;;;11.90;62.50;;;10.31;64.67;100620.16;8397809;28;20053;-80
2022/01/29 15:05:42;;;;;;;1.55;1.45;;;11.90;61.70;;;10.41;64.43;100617.88;8407863;28;20039;-81
2022/01/29 15:10:05;;;;;;;1.73;1.63;;;11.80;61.60;;;10.45;64.69;100628.97;8390449;28;20712;-82
2022/01/29 15:14:27;;;;;;;1.58;1.48;;;12.00;61.80;;;10.46;64.32;100615.88;8419754;28;20046;-82
2022/01/29 15:18:49;;;;;;;1.55;1.45;;;12.00;61.90;;;10.45;64.65;100614.19;8402395;28;20044;-82
2022/01/29 15:23:11;;;;;;;1.23;1.15;;;12.00;62.20;;;10.33;64.74;100578.31;8398397;28;20032;-83
2022/01/29 15:27:33;;;;;;;1.33;1.23;;;12.00;62.00;;;10.33;64.41;100554.84;8401400;28;20044;-82
2022/01/29 15:31:54;;;;;;;1.85;1.73;;;12.00;62.00;;;10.53;64.93;100583.25;8400534;28;20042;-81
2022/01/29 15:36:16;;;;;;;1.50;1.40;;;12.00;62.20;;;10.50;64.94;100567.75;8409776;28;20042;-82
2022/01/29 15:40:38;;;;;;;1.10;1.10;;;12.00;61.90;;;10.55;64.56;100546.59;8392902;28;20050;-83
2022/01/29 15:45:00;;;;;;;1.30;1.20;;;12.10;61.90;;;10.46;64.77;100508.00;8402548;28;20492;-82
2022/01/29 15:49:22;;;;;;;1.65;1.55;;;12.10;61.90;;;10.62;64.76;100527.88;8404558;28;20046;-81
2022/01/29 15:53:43;;;;;;;2.03;1.92;;;12.10;61.80;;;10.67;64.54;100525.00;8390697;28;20046;-82
2022/01/29 15:58:08;;;;;;;1.90;1.80;;;12.40;62.00;;;10.57;64.59;100488.16;8393228;28;20038;-81
2022/01/29 16:02:29;;;;;;;3.00;2.42;;;12.00;61.60;;;10.62;65.19;100486.09;8407712;28;20545;-81
2022/01/29 16:06:51;;;;;;;2.28;2.10;;;12.30;61.70;;;10.69;64.45;100496.19;8421296;28;20040;-82
2022/01/29 16:11:13;;;;;;;1.25;1.20;;;12.20;61.80;;;10.73;64.78;100469.81;8395573;28;20046;-81
2022/01/29 16:15:35;;;;;;;1.35;1.25;;;12.30;61.60;;;10.80;64.82;100483.31;8384879;28;20048;-82
2022/01/29 16:19:57;;;;;;;1.42;1.33;;;12.30;61.50;;;10.85;64.39;100481.28;8398850;28;20052;-82
2022/01/29 16:24:24;;;;;;;1.77;1.67;;;12.30;61.50;;;10.80;64.59;100460.66;8406516;28;20054;-82
2022/01/29 16:28:46;;;;;;;1.85;1.75;;;12.40;61.50;;;10.82;64.52;100437.88;8405879;28;20040;-81
2022/01/29 16:33:10;;;;;;;1.60;1.50;;;12.40;61.40;;;10.90;64.72;100436.59;8421231;28;20045;-78
2022/01/29 16:37:31;;;;;;;1.85;1.58;;;12.40;61.40;;;10.93;64.53;100432.00;8399681;28;20625;-82
2022/01/29 16:41:53;;;;;;;1.58;1.48;;;12.40;61.60;;;10.94;64.51;100438.09;8392872;28;20061;-82
2022/01/29 16:46:15;;;;;;;1.60;1.50;;;12.40;61.50;;;10.96;64.67;100437.03;8393197;28;20042;-82
2022/01/29 16:50:39;;;;;;;4.50;1.48;;;12.50;61.90;;;10.91;65.01;100436.50;8391898;28;20425;-83
2022/01/29 16:55:00;;;;;;;2.00;1.88;;;12.50;61.90;;;10.94;64.80;100430.25;8418037;28;20039;-82
2022/01/29 16:59:22;;;;;;;2.05;1.95;;;12.50;62.00;;;10.94;65.05;100427.66;8390773;28;20040;-83
2022/01/29 17:03:45;;;;;;;1.90;1.80;;;12.50;62.20;;;10.91;64.40;100410.38;8385480;28;20037;-82
2022/01/29 17:08:07;;;;;;;1.92;1.65;;;12.40;62.10;;;10.96;64.89;100400.47;8393482;28;20036;-85
2022/01/29 17:12:31;;;;;;;1.60;1.50;;;12.40;62.30;;;10.90;64.56;100385.19;8411922;28;20365;-81
2022/01/29 17:16:53;;;;;;;1.80;1.70;;;12.50;62.50;;;10.94;64.38;100393.69;8419489;28;20038;-81
2022/01/29 17:21:14;;;;;;;2.67;2.47;;;12.40;62.50;;;10.90;64.75;100373.91;8384735;28;20039;-82
2022/01/29 17:25:36;;;;;;;2.40;2.20;;;12.40;63.00;;;10.88;65.09;100368.75;8396854;28;20035;-82
2022/01/29 17:29:58;;;;;;;2.05;1.95;;;12.60;63.00;;;10.72;64.71;100345.38;8411829;28;20040;-81
2022/01/29 17:34:21;;;;;;;2.28;2.17;;;12.30;63.70;;;10.86;65.01;100383.72;8404064;28;20360;-81
2022/01/29 17:38:43;;;;;;;1.98;1.88;;;12.40;63.50;;;10.79;64.79;100375.41;8390222;28;20050;-81
2022/01/29 17:43:04;;;;;;;2.55;2.35;;;12.30;63.30;;;10.65;64.88;100336.25;8390423;28;20564;-82
2022/01/29 17:47:26;;;;;;;2.90;2.65;;;12.30;63.30;;;10.79;65.32;100351.88;8414438;28;20039;-82
2022/01/29 17:51:49;;;;;;;3.25;2.95;;;12.30;63.70;;;10.82;64.97;100340.41;8387866;28;20044;-82
2022/01/29 17:56:11;;;;;;;3.25;2.95;;;12.30;63.90;;;10.87;65.20;100324.47;8404365;28;20412;-81
2022/01/29 18:00:33;;;;;;;2.28;2.08;;;12.40;63.90;;;10.86;65.16;100318.41;8410579;28;20036;-80